sensor_id;sensor_type;location;lat;lon;timestamp;P1;durP1;ratioP1;P2;durP2;ratioP2
54699;SDS011;40599;53.132;6.090;2023-08-01T00:00:06;13.10;;;5.17;;
54699;SDS011;40599;53.132;6.090;2023-08-01T00:02:33;16.33;;;5.43;;
54699;SDS011;40599;53.132;6.090;2023-08-01T00:04:59;14.50;;;5.10;;
54699;SDS011;40599;53.132;6.090;2023-08-01T00:07:26;12.95;;;5.70;;
54699;SDS011;40599;53.132;6.090;2023-08-01T00:09:53;13.07;;;6.30;;
54699;SDS011;40599;53.132;6.090;2023-08-01T00:12:19;10.35;;;5.05;;
54699;SDS011;40599;53.132;6.090;2023-08-01T00:14:45;12.30;;;5.20;;
54699;SDS011;40599;53.132;6.090;2023-08-01T00:17:11;14.35;;;5.82;;
54699;SDS011;40599;53.132;6.090;2023-08-01T00:19:37;10.80;;;5.15;;
54699;SDS011;40599;53.132;6.090;2023-08-01T00:22:03;15.77;;;5.57;;
54699;SDS011;40599;53.132;6.090;2023-08-01T00:24:30;14.05;;;5.18;;
54699;SDS011;40599;53.132;6.090;2023-08-01T00:26:56;12.60;;;5.15;;
54699;SDS011;40599;53.132;6.090;2023-08-01T00:29:22;12.02;;;5.43;;
54699;SDS011;40599;53.132;6.090;2023-08-01T00:31:48;10.82;;;5.95;;
54699;SDS011;40599;53.132;6.090;2023-08-01T00:34:14;15.25;;;5.53;;
54699;SDS011;40599;53.132;6.090;2023-08-01T00:36:41;12.35;;;5.40;;
54699;SDS011;40599;53.132;6.090;2023-08-01T00:39:07;11.65;;;5.75;;
54699;SDS011;40599;53.132;6.090;2023-08-01T00:41:34;12.30;;;5.20;;
54699;SDS011;40599;53.132;6.090;2023-08-01T00:44:00;13.18;;;5.28;;
54699;SDS011;40599;53.132;6.090;2023-08-01T00:46:26;15.15;;;5.57;;
54699;SDS011;40599;53.132;6.090;2023-08-01T00:48:53;16.75;;;5.80;;
54699;SDS011;40599;53.132;6.090;2023-08-01T00:51:22;10.97;;;5.10;;
54699;SDS011;40599;53.132;6.090;2023-08-01T00:53:49;13.10;;;5.80;;
54699;SDS011;40599;53.132;6.090;2023-08-01T00:56:15;12.70;;;6.07;;
54699;SDS011;40599;53.132;6.090;2023-08-01T00:58:41;13.52;;;5.85;;
54699;SDS011;40599;53.132;6.090;2023-08-01T01:01:07;15.27;;;5.18;;
54699;SDS011;40599;53.132;6.090;2023-08-01T01:03:33;16.65;;;5.75;;
54699;SDS011;40599;53.132;6.090;2023-08-01T01:06:20;11.38;;;5.43;;
54699;SDS011;40599;53.132;6.090;2023-08-01T01:08:49;10.17;;;5.47;;
54699;SDS011;40599;53.132;6.090;2023-08-01T01:11:15;13.27;;;5.68;;
54699;SDS011;40599;53.132;6.090;2023-08-01T01:13:41;14.15;;;4.95;;
54699;SDS011;40599;53.132;6.090;2023-08-01T01:16:07;10.27;;;4.93;;
54699;SDS011;40599;53.132;6.090;2023-08-01T01:18:33;11.52;;;5.75;;
54699;SDS011;40599;53.132;6.090;2023-08-01T01:20:59;15.23;;;5.10;;
54699;SDS011;40599;53.132;6.090;2023-08-01T01:23:25;11.98;;;4.13;;
54699;SDS011;40599;53.132;6.090;2023-08-01T01:25:53;14.27;;;5.30;;
54699;SDS011;40599;53.132;6.090;2023-08-01T01:28:20;15.57;;;5.00;;
54699;SDS011;40599;53.132;6.090;2023-08-01T01:30:46;15.65;;;5.45;;
54699;SDS011;40599;53.132;6.090;2023-08-01T01:33:14;11.40;;;4.90;;
54699;SDS011;40599;53.132;6.090;2023-08-01T01:35:41;15.00;;;6.10;;
54699;SDS011;40599;53.132;6.090;2023-08-01T01:38:07;12.23;;;4.90;;
54699;SDS011;40599;53.132;6.090;2023-08-01T01:40:34;13.00;;;4.65;;
54699;SDS011;40599;53.132;6.090;2023-08-01T01:43:00;10.27;;;4.85;;
54699;SDS011;40599;53.132;6.090;2023-08-01T01:45:26;9.80;;;4.32;;
54699;SDS011;40599;53.132;6.090;2023-08-01T01:47:53;10.73;;;4.65;;
54699;SDS011;40599;53.132;6.090;2023-08-01T01:50:19;7.97;;;4.35;;
54699;SDS011;40599;53.132;6.090;2023-08-01T01:52:45;10.57;;;4.28;;
54699;SDS011;40599;53.132;6.090;2023-08-01T01:55:11;11.10;;;4.22;;
54699;SDS011;40599;53.132;6.090;2023-08-01T01:57:37;13.73;;;4.22;;
54699;SDS011;40599;53.132;6.090;2023-08-01T02:00:04;11.93;;;3.92;;
54699;SDS011;40599;53.132;6.090;2023-08-01T02:02:31;9.90;;;4.23;;
54699;SDS011;40599;53.132;6.090;2023-08-01T02:04:57;14.82;;;4.47;;
54699;SDS011;40599;53.132;6.090;2023-08-01T02:07:23;14.52;;;5.03;;
54699;SDS011;40599;53.132;6.090;2023-08-01T02:09:49;15.25;;;5.00;;
54699;SDS011;40599;53.132;6.090;2023-08-01T02:12:15;13.95;;;5.13;;
54699;SDS011;40599;53.132;6.090;2023-08-01T02:14:41;12.50;;;4.80;;
54699;SDS011;40599;53.132;6.090;2023-08-01T02:17:07;15.93;;;5.40;;
54699;SDS011;40599;53.132;6.090;2023-08-01T02:19:33;10.23;;;5.22;;
54699;SDS011;40599;53.132;6.090;2023-08-01T02:21:59;12.75;;;5.18;;
54699;SDS011;40599;53.132;6.090;2023-08-01T02:24:26;11.20;;;5.70;;
54699;SDS011;40599;53.132;6.090;2023-08-01T02:26:52;17.10;;;5.13;;
54699;SDS011;40599;53.132;6.090;2023-08-01T02:29:18;15.15;;;5.55;;
54699;SDS011;40599;53.132;6.090;2023-08-01T02:31:44;14.80;;;5.80;;
54699;SDS011;40599;53.132;6.090;2023-08-01T02:34:10;10.20;;;5.40;;
54699;SDS011;40599;53.132;6.090;2023-08-01T02:36:36;12.68;;;6.00;;
54699;SDS011;40599;53.132;6.090;2023-08-01T02:39:02;19.98;;;5.93;;
54699;SDS011;40599;53.132;6.090;2023-08-01T02:41:28;16.52;;;5.90;;
54699;SDS011;40599;53.132;6.090;2023-08-01T02:43:55;14.98;;;6.60;;
54699;SDS011;40599;53.132;6.090;2023-08-01T02:46:21;14.77;;;6.10;;
54699;SDS011;40599;53.132;6.090;2023-08-01T02:48:48;14.52;;;6.70;;
54699;SDS011;40599;53.132;6.090;2023-08-01T02:51:14;19.08;;;6.38;;
54699;SDS011;40599;53.132;6.090;2023-08-01T02:53:40;15.95;;;6.55;;
54699;SDS011;40599;53.132;6.090;2023-08-01T02:56:06;16.77;;;6.20;;
54699;SDS011;40599;53.132;6.090;2023-08-01T02:58:35;17.80;;;6.37;;
54699;SDS011;40599;53.132;6.090;2023-08-01T03:01:01;20.10;;;6.28;;
54699;SDS011;40599;53.132;6.090;2023-08-01T03:03:27;14.23;;;5.13;;
54699;SDS011;40599;53.132;6.090;2023-08-01T03:05:53;8.27;;;4.18;;
54699;SDS011;40599;53.132;6.090;2023-08-01T03:08:19;12.45;;;4.43;;
54699;SDS011;40599;53.132;6.090;2023-08-01T03:10:45;12.18;;;4.28;;
54699;SDS011;40599;53.132;6.090;2023-08-01T03:13:11;9.07;;;3.90;;
54699;SDS011;40599;53.132;6.090;2023-08-01T03:15:38;16.95;;;4.00;;
54699;SDS011;40599;53.132;6.090;2023-08-01T03:18:04;10.65;;;3.63;;
54699;SDS011;40599;53.132;6.090;2023-08-01T03:20:30;11.32;;;3.35;;
54699;SDS011;40599;53.132;6.090;2023-08-01T03:22:56;12.32;;;3.20;;
54699;SDS011;40599;53.132;6.090;2023-08-01T03:25:22;9.30;;;3.45;;
54699;SDS011;40599;53.132;6.090;2023-08-01T03:27:48;10.55;;;2.88;;
54699;SDS011;40599;53.132;6.090;2023-08-01T03:30:14;7.47;;;2.63;;
54699;SDS011;40599;53.132;6.090;2023-08-01T03:32:40;14.65;;;2.88;;
54699;SDS011;40599;53.132;6.090;2023-08-01T03:35:06;18.42;;;3.22;;
54699;SDS011;40599;53.132;6.090;2023-08-01T03:37:32;15.82;;;3.38;;
54699;SDS011;40599;53.132;6.090;2023-08-01T03:39:59;13.63;;;2.67;;
54699;SDS011;40599;53.132;6.090;2023-08-01T03:42:25;11.43;;;3.13;;
54699;SDS011;40599;53.132;6.090;2023-08-01T03:44:51;9.82;;;2.50;;
54699;SDS011;40599;53.132;6.090;2023-08-01T03:47:17;8.88;;;2.45;;
54699;SDS011;40599;53.132;6.090;2023-08-01T03:49:43;11.05;;;2.40;;
54699;SDS011;40599;53.132;6.090;2023-08-01T03:52:09;19.58;;;2.63;;
54699;SDS011;40599;53.132;6.090;2023-08-01T03:54:35;10.15;;;2.95;;
54699;SDS011;40599;53.132;6.090;2023-08-01T03:57:01;10.27;;;2.20;;
54699;SDS011;40599;53.132;6.090;2023-08-01T03:59:27;8.70;;;2.20;;
54699;SDS011;40599;53.132;6.090;2023-08-01T04:01:53;11.85;;;2.92;;
54699;SDS011;40599;53.132;6.090;2023-08-01T04:04:20;11.80;;;2.45;;
54699;SDS011;40599;53.132;6.090;2023-08-01T04:06:46;11.27;;;2.00;;
54699;SDS011;40599;53.132;6.090;2023-08-01T04:09:13;13.40;;;2.17;;
54699;SDS011;40599;53.132;6.090;2023-08-01T04:11:39;7.03;;;2.10;;
54699;SDS011;40599;53.132;6.090;2023-08-01T04:14:05;8.30;;;1.75;;
54699;SDS011;40599;53.132;6.090;2023-08-01T04:16:31;8.63;;;2.58;;
54699;SDS011;40599;53.132;6.090;2023-08-01T04:18:57;9.93;;;2.00;;
54699;SDS011;40599;53.132;6.090;2023-08-01T04:21:23;7.63;;;1.65;;
54699;SDS011;40599;53.132;6.090;2023-08-01T04:23:49;7.43;;;2.28;;
54699;SDS011;40599;53.132;6.090;2023-08-01T04:26:15;7.18;;;2.33;;
54699;SDS011;40599;53.132;6.090;2023-08-01T04:28:42;5.90;;;1.88;;
54699;SDS011;40599;53.132;6.090;2023-08-01T04:31:08;3.53;;;1.25;;
54699;SDS011;40599;53.132;6.090;2023-08-01T04:33:34;9.02;;;2.05;;
54699;SDS011;40599;53.132;6.090;2023-08-01T04:36:00;4.03;;;1.70;;
54699;SDS011;40599;53.132;6.090;2023-08-01T04:38:26;6.88;;;1.63;;
54699;SDS011;40599;53.132;6.090;2023-08-01T04:40:53;6.72;;;2.25;;
54699;SDS011;40599;53.132;6.090;2023-08-01T04:43:19;6.97;;;2.50;;
54699;SDS011;40599;53.132;6.090;2023-08-01T04:45:45;7.57;;;2.10;;
54699;SDS011;40599;53.132;6.090;2023-08-01T04:48:11;7.97;;;2.45;;
54699;SDS011;40599;53.132;6.090;2023-08-01T04:50:37;9.23;;;2.30;;
54699;SDS011;40599;53.132;6.090;2023-08-01T04:53:03;9.05;;;2.80;;
54699;SDS011;40599;53.132;6.090;2023-08-01T04:55:31;10.80;;;3.40;;
54699;SDS011;40599;53.132;6.090;2023-08-01T04:57:57;9.90;;;2.63;;
54699;SDS011;40599;53.132;6.090;2023-08-01T05:00:23;11.25;;;2.78;;
54699;SDS011;40599;53.132;6.090;2023-08-01T05:02:49;9.23;;;2.20;;
54699;SDS011;40599;53.132;6.090;2023-08-01T05:05:16;13.63;;;2.65;;
54699;SDS011;40599;53.132;6.090;2023-08-01T05:07:42;8.18;;;3.10;;
54699;SDS011;40599;53.132;6.090;2023-08-01T05:10:08;9.02;;;2.92;;
54699;SDS011;40599;53.132;6.090;2023-08-01T05:12:34;9.95;;;2.92;;
54699;SDS011;40599;53.132;6.090;2023-08-01T05:15:00;8.07;;;3.00;;
54699;SDS011;40599;53.132;6.090;2023-08-01T05:17:26;10.95;;;3.47;;
54699;SDS011;40599;53.132;6.090;2023-08-01T05:19:52;8.63;;;3.40;;
54699;SDS011;40599;53.132;6.090;2023-08-01T05:22:20;11.13;;;3.60;;
54699;SDS011;40599;53.132;6.090;2023-08-01T05:24:46;10.35;;;2.60;;
54699;SDS011;40599;53.132;6.090;2023-08-01T05:27:12;4.45;;;2.42;;
54699;SDS011;40599;53.132;6.090;2023-08-01T05:29:38;9.30;;;2.88;;
54699;SDS011;40599;53.132;6.090;2023-08-01T05:32:05;7.43;;;2.30;;
54699;SDS011;40599;53.132;6.090;2023-08-01T05:34:31;10.98;;;2.65;;
54699;SDS011;40599;53.132;6.090;2023-08-01T05:36:57;15.40;;;3.38;;
54699;SDS011;40599;53.132;6.090;2023-08-01T05:39:23;8.98;;;2.95;;
54699;SDS011;40599;53.132;6.090;2023-08-01T05:41:49;10.95;;;3.15;;
54699;SDS011;40599;53.132;6.090;2023-08-01T05:44:16;8.32;;;3.13;;
54699;SDS011;40599;53.132;6.090;2023-08-01T05:46:42;7.97;;;2.75;;
54699;SDS011;40599;53.132;6.090;2023-08-01T05:49:08;7.93;;;3.25;;
54699;SDS011;40599;53.132;6.090;2023-08-01T05:51:34;9.05;;;3.08;;
54699;SDS011;40599;53.132;6.090;2023-08-01T05:54:00;9.18;;;2.63;;
54699;SDS011;40599;53.132;6.090;2023-08-01T05:56:26;6.35;;;2.50;;
54699;SDS011;40599;53.132;6.090;2023-08-01T05:58:52;8.80;;;2.50;;
54699;SDS011;40599;53.132;6.090;2023-08-01T06:01:19;5.47;;;2.38;;
54699;SDS011;40599;53.132;6.090;2023-08-01T06:03:45;7.97;;;2.78;;
54699;SDS011;40599;53.132;6.090;2023-08-01T06:06:11;5.70;;;2.30;;
54699;SDS011;40599;53.132;6.090;2023-08-01T06:08:37;5.85;;;2.00;;
54699;SDS011;40599;53.132;6.090;2023-08-01T06:11:03;4.68;;;2.05;;
54699;SDS011;40599;53.132;6.090;2023-08-01T06:13:29;6.03;;;2.03;;
54699;SDS011;40599;53.132;6.090;2023-08-01T06:15:56;3.72;;;2.15;;
54699;SDS011;40599;53.132;6.090;2023-08-01T06:18:22;6.80;;;2.00;;
54699;SDS011;40599;53.132;6.090;2023-08-01T06:20:48;10.57;;;2.65;;
54699;SDS011;40599;53.132;6.090;2023-08-01T06:23:14;9.30;;;2.08;;
54699;SDS011;40599;53.132;6.090;2023-08-01T06:25:40;6.75;;;1.83;;
54699;SDS011;40599;53.132;6.090;2023-08-01T06:28:06;7.70;;;1.85;;
54699;SDS011;40599;53.132;6.090;2023-08-01T06:30:32;5.75;;;1.85;;
54699;SDS011;40599;53.132;6.090;2023-08-01T06:32:59;9.60;;;1.92;;
54699;SDS011;40599;53.132;6.090;2023-08-01T06:35:25;9.48;;;1.52;;
54699;SDS011;40599;53.132;6.090;2023-08-01T06:37:51;10.52;;;1.42;;
54699;SDS011;40599;53.132;6.090;2023-08-01T06:40:17;9.45;;;1.50;;
54699;SDS011;40599;53.132;6.090;2023-08-01T06:42:43;7.75;;;1.40;;
54699;SDS011;40599;53.132;6.090;2023-08-01T06:45:09;8.02;;;1.58;;
54699;SDS011;40599;53.132;6.090;2023-08-01T06:47:36;12.02;;;1.83;;
54699;SDS011;40599;53.132;6.090;2023-08-01T06:50:02;6.60;;;1.23;;
54699;SDS011;40599;53.132;6.090;2023-08-01T06:52:29;12.30;;;1.93;;
54699;SDS011;40599;53.132;6.090;2023-08-01T06:54:55;9.50;;;1.67;;
54699;SDS011;40599;53.132;6.090;2023-08-01T06:57:22;5.10;;;1.20;;
54699;SDS011;40599;53.132;6.090;2023-08-01T06:59:48;7.95;;;1.52;;
54699;SDS011;40599;53.132;6.090;2023-08-01T07:02:14;14.48;;;2.78;;
54699;SDS011;40599;53.132;6.090;2023-08-01T07:04:40;10.60;;;1.73;;
54699;SDS011;40599;53.132;6.090;2023-08-01T07:07:06;8.88;;;1.58;;
54699;SDS011;40599;53.132;6.090;2023-08-01T07:11:59;8.47;;;1.80;;
54699;SDS011;40599;53.132;6.090;2023-08-01T07:14:26;5.75;;;1.60;;
54699;SDS011;40599;53.132;6.090;2023-08-01T07:16:52;5.22;;;1.55;;
54699;SDS011;40599;53.132;6.090;2023-08-01T07:19:18;5.07;;;1.60;;
54699;SDS011;40599;53.132;6.090;2023-08-01T07:21:44;8.85;;;1.55;;
54699;SDS011;40599;53.132;6.090;2023-08-01T07:24:13;9.03;;;2.00;;
54699;SDS011;40599;53.132;6.090;2023-08-01T07:26:40;7.77;;;1.90;;
54699;SDS011;40599;53.132;6.090;2023-08-01T07:29:06;8.88;;;2.05;;
54699;SDS011;40599;53.132;6.090;2023-08-01T07:31:36;8.77;;;2.10;;
54699;SDS011;40599;53.132;6.090;2023-08-01T07:34:03;12.10;;;2.78;;
54699;SDS011;40599;53.132;6.090;2023-08-01T07:36:29;10.40;;;2.22;;
54699;SDS011;40599;53.132;6.090;2023-08-01T07:38:55;12.40;;;2.25;;
54699;SDS011;40599;53.132;6.090;2023-08-01T07:41:21;6.45;;;2.22;;
54699;SDS011;40599;53.132;6.090;2023-08-01T07:43:47;8.05;;;2.50;;
54699;SDS011;40599;53.132;6.090;2023-08-01T07:46:14;9.80;;;2.42;;
54699;SDS011;40599;53.132;6.090;2023-08-01T07:48:40;16.30;;;2.67;;
54699;SDS011;40599;53.132;6.090;2023-08-01T07:51:06;12.48;;;2.45;;
54699;SDS011;40599;53.132;6.090;2023-08-01T07:53:35;8.25;;;2.40;;
54699;SDS011;40599;53.132;6.090;2023-08-01T07:56:02;9.30;;;1.60;;
54699;SDS011;40599;53.132;6.090;2023-08-01T07:58:28;10.48;;;1.67;;
54699;SDS011;40599;53.132;6.090;2023-08-01T08:00:54;9.10;;;1.55;;
54699;SDS011;40599;53.132;6.090;2023-08-01T08:03:21;9.65;;;1.70;;
54699;SDS011;40599;53.132;6.090;2023-08-01T08:05:48;6.50;;;1.53;;
54699;SDS011;40599;53.132;6.090;2023-08-01T08:08:15;7.18;;;1.75;;
54699;SDS011;40599;53.132;6.090;2023-08-01T08:10:41;9.07;;;1.65;;
54699;SDS011;40599;53.132;6.090;2023-08-01T08:13:07;11.32;;;1.90;;
54699;SDS011;40599;53.132;6.090;2023-08-01T08:15:33;10.40;;;2.00;;
54699;SDS011;40599;53.132;6.090;2023-08-01T08:18:02;10.57;;;1.90;;
54699;SDS011;40599;53.132;6.090;2023-08-01T08:20:33;10.93;;;1.87;;
54699;SDS011;40599;53.132;6.090;2023-08-01T08:22:59;8.00;;;1.90;;
54699;SDS011;40599;53.132;6.090;2023-08-01T08:25:25;8.75;;;1.90;;
54699;SDS011;40599;53.132;6.090;2023-08-01T08:27:51;8.52;;;1.75;;
54699;SDS011;40599;53.132;6.090;2023-08-01T08:30:18;17.35;;;2.33;;
54699;SDS011;40599;53.132;6.090;2023-08-01T08:32:44;10.88;;;2.08;;
54699;SDS011;40599;53.132;6.090;2023-08-01T08:35:10;6.93;;;2.50;;
54699;SDS011;40599;53.132;6.090;2023-08-01T08:37:36;8.48;;;1.73;;
54699;SDS011;40599;53.132;6.090;2023-08-01T08:40:02;6.35;;;1.70;;
54699;SDS011;40599;53.132;6.090;2023-08-01T08:42:28;4.60;;;1.40;;
54699;SDS011;40599;53.132;6.090;2023-08-01T08:44:55;7.20;;;1.40;;
54699;SDS011;40599;53.132;6.090;2023-08-01T08:47:24;5.23;;;1.50;;
54699;SDS011;40599;53.132;6.090;2023-08-01T08:49:51;11.83;;;1.70;;
54699;SDS011;40599;53.132;6.090;2023-08-01T08:52:18;9.13;;;1.90;;
54699;SDS011;40599;53.132;6.090;2023-08-01T08:54:44;9.93;;;2.30;;
54699;SDS011;40599;53.132;6.090;2023-08-01T08:57:11;7.15;;;2.08;;
54699;SDS011;40599;53.132;6.090;2023-08-01T08:59:37;5.47;;;1.45;;
54699;SDS011;40599;53.132;6.090;2023-08-01T09:02:04;6.90;;;1.40;;
54699;SDS011;40599;53.132;6.090;2023-08-01T09:04:31;6.40;;;1.38;;
54699;SDS011;40599;53.132;6.090;2023-08-01T09:07:01;7.50;;;1.43;;
54699;SDS011;40599;53.132;6.090;2023-08-01T09:09:28;5.67;;;1.60;;
54699;SDS011;40599;53.132;6.090;2023-08-01T09:11:54;6.30;;;1.65;;
54699;SDS011;40599;53.132;6.090;2023-08-01T09:16:47;6.53;;;1.67;;
54699;SDS011;40599;53.132;6.090;2023-08-01T09:19:17;9.13;;;1.80;;
54699;SDS011;40599;53.132;6.090;2023-08-01T09:21:43;8.07;;;1.90;;
54699;SDS011;40599;53.132;6.090;2023-08-01T09:24:14;13.27;;;1.85;;
54699;SDS011;40599;53.132;6.090;2023-08-01T09:26:41;9.80;;;1.57;;
54699;SDS011;40599;53.132;6.090;2023-08-01T09:29:08;4.93;;;1.40;;
54699;SDS011;40599;53.132;6.090;2023-08-01T09:31:35;9.93;;;1.80;;
54699;SDS011;40599;53.132;6.090;2023-08-01T09:34:02;16.77;;;1.73;;
54699;SDS011;40599;53.132;6.090;2023-08-01T09:36:30;10.40;;;2.30;;
54699;SDS011;40599;53.132;6.090;2023-08-01T09:39:00;8.15;;;1.88;;
54699;SDS011;40599;53.132;6.090;2023-08-01T09:41:28;11.83;;;2.33;;
54699;SDS011;40599;53.132;6.090;2023-08-01T09:43:54;10.70;;;1.90;;
54699;SDS011;40599;53.132;6.090;2023-08-01T09:46:20;8.57;;;2.20;;
54699;SDS011;40599;53.132;6.090;2023-08-01T09:48:46;6.15;;;1.90;;
54699;SDS011;40599;53.132;6.090;2023-08-01T09:51:13;9.05;;;1.80;;
54699;SDS011;40599;53.132;6.090;2023-08-01T09:53:49;10.53;;;2.47;;
54699;SDS011;40599;53.132;6.090;2023-08-01T09:56:18;11.70;;;2.10;;
54699;SDS011;40599;53.132;6.090;2023-08-01T09:58:45;11.07;;;2.07;;
54699;SDS011;40599;53.132;6.090;2023-08-01T10:01:12;12.10;;;2.72;;
54699;SDS011;40599;53.132;6.090;2023-08-01T10:03:40;11.37;;;2.97;;
54699;SDS011;40599;53.132;6.090;2023-08-01T10:06:10;6.57;;;2.27;;
54699;SDS011;40599;53.132;6.090;2023-08-01T10:08:39;11.43;;;2.27;;
54699;SDS011;40599;53.132;6.090;2023-08-01T10:11:05;9.60;;;1.83;;
54699;SDS011;40599;53.132;6.090;2023-08-01T10:13:31;10.52;;;2.42;;
54699;SDS011;40599;53.132;6.090;2023-08-01T10:15:58;6.78;;;1.60;;
54699;SDS011;40599;53.132;6.090;2023-08-01T10:18:25;5.43;;;1.48;;
54699;SDS011;40599;53.132;6.090;2023-08-01T10:23:17;8.33;;;1.67;;
54699;SDS011;40599;53.132;6.090;2023-08-01T10:25:45;8.57;;;1.90;;
54699;SDS011;40599;53.132;6.090;2023-08-01T10:28:11;12.20;;;2.58;;
54699;SDS011;40599;53.132;6.090;2023-08-01T10:30:37;8.88;;;1.42;;
54699;SDS011;40599;53.132;6.090;2023-08-01T10:33:03;9.63;;;1.90;;
54699;SDS011;40599;53.132;6.090;2023-08-01T10:35:33;10.65;;;1.60;;
54699;SDS011;40599;53.132;6.090;2023-08-01T10:38:06;10.33;;;2.30;;
54699;SDS011;40599;53.132;6.090;2023-08-01T10:40:34;7.27;;;1.53;;
54699;SDS011;40599;53.132;6.090;2023-08-01T10:43:00;9.50;;;2.03;;
54699;SDS011;40599;53.132;6.090;2023-08-01T10:45:26;6.00;;;1.92;;
54699;SDS011;40599;53.132;6.090;2023-08-01T10:47:53;6.50;;;1.40;;
54699;SDS011;40599;53.132;6.090;2023-08-01T10:50:20;11.85;;;1.80;;
54699;SDS011;40599;53.132;6.090;2023-08-01T10:52:46;8.23;;;1.45;;
54699;SDS011;40599;53.132;6.090;2023-08-01T10:55:12;9.23;;;1.65;;
54699;SDS011;40599;53.132;6.090;2023-08-01T10:57:39;9.40;;;1.55;;
54699;SDS011;40599;53.132;6.090;2023-08-01T11:00:15;7.33;;;1.70;;
54699;SDS011;40599;53.132;6.090;2023-08-01T11:02:41;10.17;;;1.77;;
54699;SDS011;40599;53.132;6.090;2023-08-01T11:05:07;6.13;;;1.58;;
54699;SDS011;40599;53.132;6.090;2023-08-01T11:07:34;4.88;;;1.23;;
54699;SDS011;40599;53.132;6.090;2023-08-01T11:12:30;6.70;;;1.30;;
54699;SDS011;40599;53.132;6.090;2023-08-01T11:15:00;4.37;;;1.23;;
54699;SDS011;40599;53.132;6.090;2023-08-01T11:17:26;7.00;;;1.57;;
54699;SDS011;40599;53.132;6.090;2023-08-01T11:19:59;7.10;;;1.35;;
54699;SDS011;40599;53.132;6.090;2023-08-01T11:22:25;6.53;;;1.30;;
54699;SDS011;40599;53.132;6.090;2023-08-01T11:24:52;7.70;;;1.77;;
54699;SDS011;40599;53.132;6.090;2023-08-01T11:27:18;10.00;;;1.40;;
54699;SDS011;40599;53.132;6.090;2023-08-01T11:29:44;11.57;;;1.83;;
54699;SDS011;40599;53.132;6.090;2023-08-01T11:32:10;8.00;;;1.83;;
54699;SDS011;40599;53.132;6.090;2023-08-01T11:34:41;11.43;;;1.57;;
54699;SDS011;40599;53.132;6.090;2023-08-01T11:37:10;12.00;;;2.07;;
54699;SDS011;40599;53.132;6.090;2023-08-01T11:39:36;11.23;;;1.60;;
54699;SDS011;40599;53.132;6.090;2023-08-01T11:42:02;6.90;;;1.40;;
54699;SDS011;40599;53.132;6.090;2023-08-01T11:44:29;4.65;;;1.42;;
54699;SDS011;40599;53.132;6.090;2023-08-01T11:46:55;7.43;;;1.60;;
54699;SDS011;40599;53.132;6.090;2023-08-01T11:49:21;5.75;;;1.52;;
54699;SDS011;40599;53.132;6.090;2023-08-01T11:51:48;12.18;;;1.75;;
54699;SDS011;40599;53.132;6.090;2023-08-01T11:54:14;8.80;;;1.77;;
54699;SDS011;40599;53.132;6.090;2023-08-01T11:56:42;6.83;;;1.57;;
54699;SDS011;40599;53.132;6.090;2023-08-01T11:59:12;10.25;;;2.58;;
54699;SDS011;40599;53.132;6.090;2023-08-01T12:01:46;16.67;;;2.20;;
54699;SDS011;40599;53.132;6.090;2023-08-01T12:04:26;6.07;;;1.80;;
54699;SDS011;40599;53.132;6.090;2023-08-01T12:06:53;6.90;;;2.17;;
54699;SDS011;40599;53.132;6.090;2023-08-01T12:09:20;5.37;;;1.33;;
54699;SDS011;40599;53.132;6.090;2023-08-01T12:11:46;8.50;;;1.25;;
54699;SDS011;40599;53.132;6.090;2023-08-01T12:14:23;10.43;;;1.73;;
54699;SDS011;40599;53.132;6.090;2023-08-01T12:16:50;6.95;;;1.40;;
54699;SDS011;40599;53.132;6.090;2023-08-01T12:19:19;5.75;;;1.50;;
54699;SDS011;40599;53.132;6.090;2023-08-01T12:21:46;7.93;;;1.50;;
54699;SDS011;40599;53.132;6.090;2023-08-01T12:24:12;8.57;;;1.83;;
54699;SDS011;40599;53.132;6.090;2023-08-01T12:26:39;12.55;;;2.30;;
54699;SDS011;40599;53.132;6.090;2023-08-01T12:29:05;9.60;;;1.88;;
54699;SDS011;40599;53.132;6.090;2023-08-01T12:31:32;7.40;;;1.53;;
54699;SDS011;40599;53.132;6.090;2023-08-01T12:33:58;7.65;;;2.22;;
54699;SDS011;40599;53.132;6.090;2023-08-01T12:36:25;9.05;;;1.60;;
54699;SDS011;40599;53.132;6.090;2023-08-01T12:38:51;8.57;;;1.67;;
54699;SDS011;40599;53.132;6.090;2023-08-01T12:41:17;6.72;;;1.40;;
54699;SDS011;40599;53.132;6.090;2023-08-01T12:43:43;6.25;;;1.30;;
54699;SDS011;40599;53.132;6.090;2023-08-01T12:46:09;8.65;;;1.58;;
54699;SDS011;40599;53.132;6.090;2023-08-01T12:48:36;5.75;;;1.38;;
54699;SDS011;40599;53.132;6.090;2023-08-01T12:51:03;6.47;;;1.65;;
54699;SDS011;40599;53.132;6.090;2023-08-01T12:53:29;7.40;;;1.60;;
54699;SDS011;40599;53.132;6.090;2023-08-01T12:55:55;7.35;;;1.70;;
54699;SDS011;40599;53.132;6.090;2023-08-01T12:58:21;10.00;;;1.83;;
54699;SDS011;40599;53.132;6.090;2023-08-01T13:00:47;6.78;;;1.98;;
54699;SDS011;40599;53.132;6.090;2023-08-01T13:03:14;9.30;;;1.90;;
54699;SDS011;40599;53.132;6.090;2023-08-01T13:05:40;10.52;;;1.75;;
54699;SDS011;40599;53.132;6.090;2023-08-01T13:10:33;14.77;;;2.07;;
54699;SDS011;40599;53.132;6.090;2023-08-01T13:13:00;10.67;;;2.30;;
54699;SDS011;40599;53.132;6.090;2023-08-01T13:15:26;6.50;;;1.50;;
54699;SDS011;40599;53.132;6.090;2023-08-01T13:17:53;9.93;;;2.08;;
54699;SDS011;40599;53.132;6.090;2023-08-01T13:20:19;6.90;;;1.70;;
54699;SDS011;40599;53.132;6.090;2023-08-01T13:22:45;6.72;;;1.60;;
54699;SDS011;40599;53.132;6.090;2023-08-01T13:27:38;5.60;;;1.60;;
54699;SDS011;40599;53.132;6.090;2023-08-01T13:30:04;8.85;;;1.77;;
54699;SDS011;40599;53.132;6.090;2023-08-01T13:32:30;8.07;;;1.63;;
54699;SDS011;40599;53.132;6.090;2023-08-01T13:34:57;8.35;;;1.65;;
54699;SDS011;40599;53.132;6.090;2023-08-01T13:37:23;11.85;;;1.92;;
54699;SDS011;40599;53.132;6.090;2023-08-01T13:39:49;8.07;;;1.38;;
54699;SDS011;40599;53.132;6.090;2023-08-01T13:42:24;3.58;;;1.20;;
54699;SDS011;40599;53.132;6.090;2023-08-01T13:44:50;8.60;;;1.87;;
54699;SDS011;40599;53.132;6.090;2023-08-01T13:47:16;8.93;;;1.30;;
54699;SDS011;40599;53.132;6.090;2023-08-01T13:49:43;5.43;;;1.52;;
54699;SDS011;40599;53.132;6.090;2023-08-01T13:52:09;5.93;;;1.25;;
54699;SDS011;40599;53.132;6.090;2023-08-01T13:54:35;6.93;;;1.10;;
54699;SDS011;40599;53.132;6.090;2023-08-01T13:57:01;8.35;;;1.58;;
54699;SDS011;40599;53.132;6.090;2023-08-01T13:59:27;7.70;;;1.23;;
54699;SDS011;40599;53.132;6.090;2023-08-01T14:01:53;7.45;;;1.38;;
54699;SDS011;40599;53.132;6.090;2023-08-01T14:04:20;7.13;;;1.30;;
54699;SDS011;40599;53.132;6.090;2023-08-01T14:09:12;4.50;;;1.20;;
54699;SDS011;40599;53.132;6.090;2023-08-01T14:11:38;8.55;;;1.30;;
54699;SDS011;40599;53.132;6.090;2023-08-01T14:14:05;5.78;;;1.65;;
54699;SDS011;40599;53.132;6.090;2023-08-01T14:16:31;10.85;;;1.40;;
54699;SDS011;40599;53.132;6.090;2023-08-01T14:18:58;6.60;;;1.30;;
54699;SDS011;40599;53.132;6.090;2023-08-01T14:21:24;7.23;;;1.87;;
54699;SDS011;40599;53.132;6.090;2023-08-01T14:23:50;6.75;;;1.67;;
54699;SDS011;40599;53.132;6.090;2023-08-01T14:26:16;9.55;;;1.92;;
54699;SDS011;40599;53.132;6.090;2023-08-01T14:28:42;5.15;;;1.23;;
54699;SDS011;40599;53.132;6.090;2023-08-01T14:31:09;5.28;;;1.25;;
54699;SDS011;40599;53.132;6.090;2023-08-01T14:33:35;7.05;;;1.83;;
54699;SDS011;40599;53.132;6.090;2023-08-01T14:36:01;10.93;;;1.17;;
54699;SDS011;40599;53.132;6.090;2023-08-01T14:38:27;7.70;;;2.78;;
54699;SDS011;40599;53.132;6.090;2023-08-01T14:40:53;7.43;;;1.40;;
54699;SDS011;40599;53.132;6.090;2023-08-01T14:43:20;7.13;;;1.83;;
54699;SDS011;40599;53.132;6.090;2023-08-01T14:45:46;9.25;;;1.77;;
54699;SDS011;40599;53.132;6.090;2023-08-01T14:48:12;7.60;;;1.63;;
54699;SDS011;40599;53.132;6.090;2023-08-01T14:50:39;7.47;;;1.75;;
54699;SDS011;40599;53.132;6.090;2023-08-01T14:53:05;9.73;;;2.58;;
54699;SDS011;40599;53.132;6.090;2023-08-01T14:55:33;5.50;;;1.53;;